Time;durP1;ratioP1;P1;durP2;ratioP2;P2;SDS_P1;SDS_P2;PMS_P1;PMS_P2;Temp;Humidity;BMP_temperature;BMP_pressure;BME280_temperature;BME280_humidity;BME280_pressure;Samples;Min_cycle;Max_cycle;Signal;HPM_P1;HPM_P2
2022/05/04 00:01:32;;;;;;;7.03;2.20;;;;;;;7.74;56.61;101449.94;5052940;28;20048;-59
2022/05/04 00:03:59;;;;;;;4.85;2.53;;;;;;;7.74;56.26;101449.94;5040569;28;20057;-59
2022/05/04 00:06:26;;;;;;;6.60;2.92;;;;;;;7.75;56.05;101451.66;5032992;28;20053;-59
2022/05/04 00:08:53;;;;;;;9.10;3.10;;;;;;;7.75;56.06;101452.53;5058527;28;20052;-59
2022/05/04 00:11:19;;;;;;;12.35;4.03;;;;;;;7.72;55.85;101455.06;5050675;28;20056;-58
2022/05/04 00:13:47;;;;;;;10.02;3.25;;;;;;;7.71;55.96;101453.34;5032544;28;20061;-59
2022/05/04 00:16:13;;;;;;;9.88;3.97;;;;;;;7.67;55.73;101453.28;5032284;28;20496;-59
2022/05/04 00:18:40;;;;;;;7.05;3.00;;;;;;;7.62;55.64;101449.75;5032700;28;20060;-59
2022/05/04 00:21:07;;;;;;;7.10;2.83;;;;;;;7.57;55.89;101457.44;5052751;28;20044;-59
2022/05/04 00:23:34;;;;;;;6.28;3.30;;;;;;;7.54;55.95;101455.69;5067065;28;20060;-59
2022/05/04 00:26:01;;;;;;;7.88;3.25;;;;;;;7.50;55.98;101456.47;5072962;28;20056;-59
2022/05/04 00:28:27;;;;;;;7.93;2.97;;;;;;;7.46;55.95;101465.00;5072838;28;20048;-59
2022/05/04 00:30:55;;;;;;;7.93;2.78;;;;;;;7.45;56.03;101464.97;5072632;28;20063;-58
2022/05/04 00:33:21;;;;;;;9.05;3.30;;;;;;;7.45;55.94;101467.56;5072280;28;20053;-59
2022/05/04 00:35:48;;;;;;;5.60;3.00;;;;;;;7.42;56.30;101465.81;5072766;28;20052;-58
2022/05/04 00:38:14;;;;;;;6.75;2.38;;;;;;;7.40;55.76;101475.22;5072526;28;20048;-59
2022/05/04 00:40:41;;;;;;;7.32;2.75;;;;;;;7.36;55.50;101470.88;5077894;28;20043;-59
2022/05/04 00:43:20;;;;;;;7.13;2.78;;;;;;;7.32;55.82;101475.94;5092896;28;20078;-58
2022/05/04 00:45:47;;;;;;;6.20;2.53;;;;;;;7.25;55.79;101477.53;5056954;28;20098;-58
2022/05/04 00:48:15;;;;;;;8.05;2.75;;;;;;;7.22;55.94;101474.91;5052469;28;20049;-59
2022/05/04 00:50:42;;;;;;;4.38;1.92;;;;;;;7.19;56.11;101480.88;5052155;28;20049;-59
2022/05/04 00:53:09;;;;;;;4.72;1.90;;;;;;;7.17;55.99;101476.53;5052400;28;20056;-59
2022/05/04 00:55:36;;;;;;;6.72;2.30;;;;;;;7.14;55.66;101481.63;5052385;28;20070;-59
2022/05/04 01:00:48;;;;;;;5.43;2.20;;;;;;;7.08;55.94;101486.69;5052122;28;20067;-59
2022/05/04 01:03:18;;;;;;;5.28;2.15;;;;;;;7.04;55.83;101484.91;5051891;28;20509;-60
2022/05/04 01:05:45;;;;;;;6.75;3.75;;;;;;;7.02;55.82;101486.59;5052406;28;20052;-58
2022/05/04 01:08:11;;;;;;;6.78;2.50;;;;;;;6.95;55.71;101483.91;5072508;28;20437;-59
2022/05/04 01:10:38;;;;;;;7.32;3.47;;;;;;;6.92;55.77;101491.56;5072286;28;20049;-59
2022/05/04 01:13:04;;;;;;;11.20;3.88;;;;;;;6.90;55.77;101489.81;5076110;28;20059;-59
2022/05/04 01:15:31;;;;;;;16.65;7.25;;;;;;;6.87;55.84;101498.34;5076366;28;20132;-59
2022/05/04 01:17:57;;;;;;;31.00;13.85;;;;;;;6.87;56.36;101498.34;5076373;28;20072;-59
2022/05/04 01:20:25;;;;;;;22.50;11.15;;;;;;;6.86;55.81;101494.03;5075874;28;20048;-59
2022/05/04 01:22:55;;;;;;;22.70;9.85;;;;;;;6.84;56.05;101498.28;5066932;28;20526;-59
2022/05/04 01:25:21;;;;;;;18.05;8.50;;;;;;;6.80;55.86;101501.66;5056035;28;20057;-59
2022/05/04 01:27:48;;;;;;;16.50;7.03;;;;;;;6.76;55.85;101498.97;5056013;28;20053;-59
2022/05/04 01:30:14;;;;;;;13.10;5.63;;;;;;;6.68;55.76;101501.38;5055776;28;20056;-58
2022/05/04 01:32:41;;;;;;;15.70;6.50;;;;;;;6.60;55.74;101500.38;5055996;28;20060;-58
2022/05/04 01:35:08;;;;;;;18.55;7.95;;;;;;;6.58;56.49;101504.63;5055977;28;20076;-59
2022/05/04 01:37:35;;;;;;;16.80;7.05;;;;;;;6.57;56.03;101500.31;5055783;28;20517;-59
2022/05/04 01:40:03;;;;;;;11.82;4.80;;;;;;;6.55;56.08;101494.25;5055755;28;20060;-58
2022/05/04 01:42:29;;;;;;;9.35;4.82;;;;;;;6.52;56.46;101505.38;5036022;28;20068;-59
2022/05/04 01:44:56;;;;;;;11.75;5.50;;;;;;;6.51;56.46;101503.63;5046380;28;20061;-59
2022/05/04 01:47:22;;;;;;;10.02;4.20;;;;;;;6.51;56.47;101493.34;5055444;28;20383;-59
2022/05/04 01:49:49;;;;;;;8.43;3.90;;;;;;;6.48;56.14;101507.84;5055418;28;20041;-59
2022/05/04 01:52:15;;;;;;;10.35;4.97;;;;;;;6.44;56.31;101506.06;5044039;28;20057;-59
2022/05/04 01:54:42;;;;;;;13.73;4.93;;;;;;;6.40;56.46;101506.84;5035351;28;20501;-59
2022/05/04 01:57:10;;;;;;;9.38;4.25;;;;;;;6.36;56.39;101508.47;5035396;28;20623;-58
2022/05/04 01:59:36;;;;;;;17.75;5.80;;;;;;;6.32;56.31;101516.97;5035086;28;20053;-59
2022/05/04 02:02:06;;;;;;;10.38;4.70;;;;;;;6.32;56.79;101511.81;5035538;28;20060;-59
2022/05/04 02:04:32;;;;;;;12.30;4.88;;;;;;;6.28;56.86;101513.47;5035303;28;20520;-60
2022/05/04 02:06:59;;;;;;;9.02;4.32;;;;;;;6.27;57.11;101510.84;5054462;28;20061;-59
2022/05/04 02:09:27;;;;;;;9.32;4.55;;;;;;;6.24;56.88;101514.25;5061664;28;20056;-59
2022/05/04 02:11:53;;;;;;;10.07;3.92;;;;;;;6.24;56.92;101513.34;5055173;28;20068;-59
2022/05/04 02:14:21;;;;;;;10.27;4.97;;;;;;;6.22;56.92;101510.72;5054783;28;20608;-59
2022/05/04 02:16:47;;;;;;;9.50;4.55;;;;;;;6.18;56.63;101519.22;5055179;28;20052;-59
2022/05/04 02:19:14;;;;;;;9.77;4.05;;;;;;;6.15;56.92;101520.88;5054940;28;20064;-58
2022/05/04 02:21:40;;;;;;;10.63;4.45;;;;;;;6.11;56.63;101514.78;5054856;28;20053;-58
2022/05/04 02:24:07;;;;;;;11.85;4.60;;;;;;;6.10;56.79;101525.91;5056923;28;20057;-59
2022/05/04 02:26:34;;;;;;;13.85;4.15;;;;;;;6.09;56.60;101524.16;5054301;28;20052;-58
2022/05/04 02:29:02;;;;;;;14.98;3.80;;;;;;;6.08;56.51;101517.28;5069485;28;20045;-59
2022/05/04 02:31:30;;;;;;;10.77;3.28;;;;;;;6.07;56.58;101514.69;5066214;28;20614;-59
2022/05/04 02:33:56;;;;;;;8.50;2.97;;;;;;;6.03;57.03;101524.03;5061880;28;20052;-59
2022/05/04 02:39:07;;;;;;;6.70;2.55;;;;;;;5.98;56.52;101518.78;5074487;28;20075;-59
2022/05/04 02:41:33;;;;;;;6.60;2.45;;;;;;;5.97;57.05;101521.31;5086584;28;20048;-59
2022/05/04 02:44:00;;;;;;;6.38;2.40;;;;;;;5.98;56.69;101525.63;5094539;28;20063;-59
2022/05/04 02:46:31;;;;;;;5.90;1.92;;;;;;;5.96;56.74;101522.16;5059794;28;20099;-58
2022/05/04 02:48:58;;;;;;;5.25;2.17;;;;;;;5.95;56.77;101520.41;5069165;28;20056;-58
2022/05/04 02:51:24;;;;;;;7.28;2.55;;;;;;;5.93;56.68;101522.09;5074707;28;20048;-59
2022/05/04 02:53:51;;;;;;;5.90;2.58;;;;;;;5.90;56.86;101527.16;5074417;28;20365;-59
2022/05/04 02:56:17;;;;;;;5.90;2.35;;;;;;;5.89;56.26;101530.53;5074314;28;20049;-58
2022/05/04 02:58:45;;;;;;;7.05;1.77;;;;;;;5.87;56.18;101538.22;5056526;28;20060;-58
2022/05/04 03:03:58;;;;;;;3.95;1.70;;;;;;;5.84;56.16;101543.31;5074379;28;20473;-59
2022/05/04 03:06:24;;;;;;;5.03;1.80;;;;;;;5.82;56.56;101538.94;5074121;28;20048;-59
2022/05/04 03:08:51;;;;;;;7.05;2.08;;;;;;;5.81;56.24;101543.22;5083035;28;20055;-59
2022/05/04 03:14:01;;;;;;;4.07;1.80;;;;;;;5.78;56.83;101542.28;5073114;28;20115;-60
2022/05/04 03:16:28;;;;;;;4.45;1.63;;;;;;;5.76;56.65;101543.97;5074233;28;20048;-59
2022/05/04 03:18:54;;;;;;;5.82;2.20;;;;;;;5.73;56.51;101549.03;5074353;28;20064;-59
2022/05/04 03:21:22;;;;;;;5.40;1.77;;;;;;;5.72;56.41;101545.56;5074196;28;20060;-55
2022/05/04 03:23:48;;;;;;;6.10;1.90;;;;;;;5.69;56.11;101551.50;5073369;28;20048;-59
2022/05/04 03:26:15;;;;;;;4.18;1.77;;;;;;;5.68;56.73;101549.75;5054613;28;20390;-58
2022/05/04 03:28:41;;;;;;;5.95;1.77;;;;;;;5.67;56.43;101555.72;5063094;28;20060;-58
2022/05/04 03:31:07;;;;;;;3.70;1.70;;;;;;;5.68;56.44;101548.88;5073914;28;20057;-58
2022/05/04 03:33:34;;;;;;;5.03;1.65;;;;;;;5.67;56.88;101550.59;5073458;28;20053;-58
2022/05/04 03:36:00;;;;;;;4.35;1.85;;;;;;;5.67;56.69;101553.16;5073594;28;20454;-58
2022/05/04 03:38:28;;;;;;;5.88;1.85;;;;;;;5.70;56.65;101555.81;5073823;28;20107;-59
2022/05/04 03:40:55;;;;;;;4.60;1.52;;;;;;;5.73;56.79;101559.31;5080817;28;20055;-59
2022/05/04 03:43:21;;;;;;;4.05;1.88;;;;;;;5.79;57.30;101555.19;5093971;28;20044;-57
2022/05/04 03:45:47;;;;;;;9.73;2.00;;;;;;;5.87;57.19;101561.38;5053788;28;20052;-58
2022/05/04 03:48:14;;;;;;;5.43;2.05;;;;;;;5.97;57.12;101565.94;5053850;28;20048;-57
2022/05/04 03:50:40;;;;;;;4.68;2.20;;;;;;;6.07;56.73;101566.16;5053811;28;20045;-58
2022/05/04 03:53:07;;;;;;;6.88;1.48;;;;;;;6.20;56.81;101569.03;5053355;28;20614;-59
2022/05/04 03:55:35;;;;;;;6.75;2.00;;;;;;;6.32;56.55;101571.91;5053257;28;20488;-58
2022/05/04 03:58:01;;;;;;;4.90;1.60;;;;;;;6.47;56.45;101567.94;5058201;28;20060;-59
2022/05/04 04:00:28;;;;;;;7.68;2.40;;;;;;;6.59;55.90;101563.03;5073555;28;20049;-59
2022/05/04 04:02:54;;;;;;;4.75;1.70;;;;;;;6.71;55.81;101568.44;5073559;28;20044;-59
2022/05/04 04:05:22;;;;;;;3.47;2.00;;;;;;;6.87;55.51;101570.50;5073261;28;20537;-58
2022/05/04 04:07:49;;;;;;;4.93;1.40;;;;;;;6.99;55.72;101569.00;5082397;28;20126;-58
2022/05/04 04:10:16;;;;;;;7.55;1.88;;;;;;;7.12;55.18;101574.44;5073245;28;20045;-59
2022/05/04 04:12:43;;;;;;;5.25;1.90;;;;;;;7.27;54.98;101571.25;5063064;28;20055;-58
2022/05/04 04:15:10;;;;;;;4.63;1.88;;;;;;;7.42;54.73;101575.84;5053127;28;20056;-59
2022/05/04 04:17:37;;;;;;;7.05;1.85;;;;;;;7.57;54.83;101571.81;5053000;28;20573;-58
2022/05/04 04:22:48;;;;;;;7.25;1.60;;;;;;;8.00;53.59;101577.72;5072856;28;20068;-59
2022/05/04 04:25:14;;;;;;;7.40;1.80;;;;;;;8.22;53.54;101577.16;5073125;28;20048;-59
2022/05/04 04:27:41;;;;;;;4.57;1.40;;;;;;;8.44;52.22;101581.00;5072694;28;20453;-59
2022/05/04 04:30:10;;;;;;;3.53;1.17;;;;;;;8.68;51.53;101583.03;5072986;28;20067;-59
2022/05/04 04:32:36;;;;;;;9.40;1.27;;;;;;;8.94;49.39;101592.84;5073075;28;20064;-59
2022/05/04 04:35:03;;;;;;;6.75;1.30;;;;;;;9.16;49.01;101599.97;5073052;28;20059;-58
2022/05/04 04:37:30;;;;;;;4.97;1.20;;;;;;;9.37;48.15;101600.25;5072463;28;20540;-59
2022/05/04 04:39:56;;;;;;;6.45;1.33;;;;;;;9.56;46.97;101587.47;5072725;28;20049;-59
2022/05/04 04:42:23;;;;;;;4.28;1.10;;;;;;;9.76;46.25;101593.69;5092452;28;20063;-59
2022/05/04 04:44:50;;;;;;;3.00;0.82;;;;;;;9.92;45.48;101594.72;5093211;28;20058;-60
2022/05/04 04:47:18;;;;;;;11.98;1.00;;;;;;;10.07;44.55;101600.00;5092740;28;20534;-60
2022/05/04 04:49:44;;;;;;;6.85;1.00;;;;;;;10.22;44.08;101604.44;5093093;28;20099;-58
2022/05/04 04:52:10;;;;;;;5.22;1.00;;;;;;;10.34;44.02;101600.22;5092962;28;20051;-59
2022/05/04 04:54:37;;;;;;;3.08;0.80;;;;;;;10.48;42.77;101596.88;5076584;28;20053;-60
2022/05/04 04:57:04;;;;;;;6.10;1.50;;;;;;;10.65;42.92;101593.50;5052518;28;20061;-58
2022/05/04 04:59:30;;;;;;;4.10;0.90;;;;;;;10.81;42.45;101601.34;5052368;28;20458;-59
2022/05/04 05:01:57;;;;;;;5.72;1.10;;;;;;;10.91;41.65;101603.97;5052700;28;20064;-58
2022/05/04 05:04:24;;;;;;;2.53;1.08;;;;;;;10.96;41.29;101598.84;5052775;28;20172;-59
2022/05/04 05:06:51;;;;;;;6.25;1.17;;;;;;;11.09;41.21;101602.34;5053142;28;20741;-57
2022/05/04 05:09:17;;;;;;;3.85;1.00;;;;;;;11.20;40.28;101606.69;5072099;28;20057;-58
2022/05/04 05:11:44;;;;;;;5.70;1.02;;;;;;;11.28;39.80;101606.72;5061964;28;20049;-58
2022/05/04 05:16:54;;;;;;;3.88;1.08;;;;;;;11.48;39.28;101611.97;5052562;28;20119;-59
2022/05/04 05:19:21;;;;;;;3.65;1.05;;;;;;;11.57;39.12;101611.97;5052306;28;20080;-59
2022/05/04 05:21:49;;;;;;;5.57;1.33;;;;;;;11.73;39.01;101608.53;5052552;28;20049;-60
2022/05/04 05:24:15;;;;;;;4.65;1.23;;;;;;;11.92;38.43;101620.69;5052484;28;20064;-59
2022/05/04 05:26:41;;;;;;;7.43;1.23;;;;;;;12.04;38.45;101611.19;5052371;28;20065;-59
2022/05/04 05:29:08;;;;;;;4.47;1.25;;;;;;;12.14;38.08;101615.50;5052374;28;20076;-58
2022/05/04 05:31:34;;;;;;;4.45;1.35;;;;;;;12.23;38.10;101615.50;5051893;28;20362;-58
2022/05/04 05:34:01;;;;;;;6.30;1.40;;;;;;;12.28;38.02;101609.41;5052366;28;20064;-59
2022/05/04 05:36:27;;;;;;;4.10;1.35;;;;;;;12.29;37.50;101611.16;5052298;28;20056;-59
2022/05/04 05:38:55;;;;;;;4.47;1.35;;;;;;;12.28;37.33;101614.63;5052248;28;20144;-59
2022/05/04 05:41:23;;;;;;;5.07;1.13;;;;;;;12.26;37.27;101611.16;5073783;28;20139;-59
2022/05/04 05:43:49;;;;;;;4.40;1.25;;;;;;;12.31;37.15;101614.63;5092310;28;20056;-60
2022/05/04 05:46:16;;;;;;;4.80;1.33;;;;;;;12.30;36.58;101615.47;5091995;28;20074;-59
2022/05/04 05:48:43;;;;;;;5.45;1.40;;;;;;;12.33;36.77;101617.22;5092082;28;20392;-59
2022/05/04 05:51:09;;;;;;;2.33;1.23;;;;;;;12.36;36.84;101622.41;5092342;28;20149;-59
2022/05/04 05:53:35;;;;;;;6.03;1.48;;;;;;;12.43;36.83;101624.13;5092339;28;20048;-59
2022/05/04 05:56:04;;;;;;;2.78;1.17;;;;;;;12.52;36.60;101618.06;5092371;28;20055;-58
2022/05/04 05:58:30;;;;;;;2.55;0.93;;;;;;;12.53;36.62;101625.00;5095277;28;20058;-58
2022/05/04 06:00:57;;;;;;;2.97;1.48;;;;;;;12.59;36.45;101620.66;5095803;28;20052;-59
2022/05/04 06:03:27;;;;;;;3.25;1.30;;;;;;;12.68;36.25;101622.34;5092391;28;20052;-59
2022/05/04 06:05:53;;;;;;;7.35;1.30;;;;;;;12.77;36.43;101634.47;5071568;28;20052;-60
2022/05/04 06:08:20;;;;;;;3.30;1.30;;;;;;;12.83;36.40;101634.44;5079633;28;20048;-60
2022/05/04 06:10:46;;;;;;;7.35;1.50;;;;;;;12.83;36.43;101627.50;5068690;28;20048;-56
2022/05/04 06:13:14;;;;;;;4.20;1.70;;;;;;;12.82;36.36;101632.72;5081911;28;20052;-59
2022/05/04 06:15:40;;;;;;;6.47;1.77;;;;;;;12.81;36.56;101630.97;5074087;28;20063;-59
2022/05/04 06:18:07;;;;;;;5.88;1.65;;;;;;;12.83;36.27;101626.63;5092174;28;20064;-60
2022/05/04 06:20:34;;;;;;;4.32;1.60;;;;;;;12.82;36.39;101630.09;5081771;28;20058;-61
2022/05/04 06:23:00;;;;;;;5.68;1.70;;;;;;;12.82;36.63;101630.09;5084795;28;20091;-60
2022/05/04 06:25:27;;;;;;;6.38;1.92;;;;;;;12.85;36.54;101628.34;5089278;28;20059;-61
2022/05/04 06:27:53;;;;;;;6.95;2.08;;;;;;;12.90;36.79;101630.94;5068528;28;20091;-61
2022/05/04 06:35:50;;;;;;;5.25;1.77;;;;;;;13.12;36.63;101637.81;5078277;28;20059;-60
2022/05/04 06:38:16;;;;;;;7.50;1.52;;;;;;;13.29;36.54;101634.28;5090737;28;20481;-61
2022/05/04 06:40:43;;;;;;;3.50;1.40;;;;;;;13.41;36.12;101636.81;5077102;28;20056;-61
2022/05/04 06:43:09;;;;;;;4.57;1.40;;;;;;;13.50;35.67;101631.56;5086303;28;20052;-61
2022/05/04 06:45:37;;;;;;;3.50;1.30;;;;;;;13.57;35.28;101631.53;5079359;28;20052;-60
2022/05/04 06:48:05;;;;;;;4.57;1.38;;;;;;;13.68;35.23;101644.50;5091695;28;20059;-60
2022/05/04 06:50:31;;;;;;;3.60;1.10;;;;;;;13.72;35.18;101637.50;5080991;28;20102;-61
2022/05/04 06:52:58;;;;;;;3.35;1.33;;;;;;;13.76;34.75;101632.28;5084663;28;20048;-60
2022/05/04 06:55:24;;;;;;;4.35;1.40;;;;;;;13.82;34.93;101636.56;5088341;28;20106;-62
2022/05/04 06:57:51;;;;;;;4.22;1.25;;;;;;;13.86;34.75;101633.94;5077712;28;20044;-62
2022/05/04 07:00:18;;;;;;;5.18;1.15;;;;;;;13.94;34.94;101633.84;5090555;28;20048;-62
2022/05/04 07:02:46;;;;;;;9.80;1.90;;;;;;;14.07;35.02;101638.13;5082381;28;20056;-61
2022/05/04 07:05:12;;;;;;;5.57;1.52;;;;;;;14.21;34.83;101635.38;5082603;28;20059;-62
2022/05/04 07:07:39;;;;;;;6.80;1.80;;;;;;;14.28;35.20;101642.28;5089424;28;20067;-61
2022/05/04 07:10:06;;;;;;;4.45;1.63;;;;;;;14.40;35.07;101647.38;5076486;28;20044;-62
2022/05/04 07:12:33;;;;;;;5.63;1.55;;;;;;;14.46;35.00;101631.69;5083485;28;20048;-61
2022/05/04 07:14:59;;;;;;;6.63;1.85;;;;;;;14.58;34.92;101640.31;5077564;28;20060;-62
2022/05/04 07:17:27;;;;;;;3.95;1.80;;;;;;;14.65;34.87;101641.97;5081206;28;20051;-62
2022/05/04 07:19:55;;;;;;;5.70;1.65;;;;;;;14.74;34.70;101636.63;5077730;28;20044;-62
2022/05/04 07:22:23;;;;;;;6.55;1.73;;;;;;;14.81;34.73;101638.28;5083476;28;20058;-59
2022/05/04 07:24:49;;;;;;;3.72;1.65;;;;;;;14.83;34.83;101631.31;5085396;28;20059;-61
2022/05/04 07:27:16;;;;;;;6.22;1.70;;;;;;;14.86;34.67;101639.09;5074854;28;20068;-60
2022/05/04 07:29:42;;;;;;;4.40;1.58;;;;;;;14.88;34.47;101639.94;5086031;28;20052;-61
2022/05/04 07:32:09;;;;;;;3.42;1.52;;;;;;;14.91;34.54;101641.66;5077055;28;20054;-59
2022/05/04 07:34:36;;;;;;;8.60;1.80;;;;;;;14.90;34.12;101638.19;5087648;28;20079;-58
2022/05/04 07:37:05;;;;;;;3.53;1.10;;;;;;;14.87;33.63;101647.78;5073505;28;20466;-57
2022/05/04 07:42:27;;;;;;;3.63;1.40;;;;;;;14.81;33.78;101643.50;5061131;28;20556;-59
2022/05/04 07:44:58;;;;;;;27.13;3.95;;;;;;;14.81;34.04;101653.97;5084270;28;20051;-58
2022/05/04 07:47:25;;;;;;;4.63;1.20;;;;;;;14.78;33.43;101639.19;5087264;28;20056;-60
2022/05/04 07:49:51;;;;;;;3.40;1.75;;;;;;;14.75;33.12;101639.22;5075090;28;20084;-61
2022/05/04 07:52:19;;;;;;;4.90;1.35;;;;;;;14.72;33.66;101639.25;5088988;28;20041;-59
2022/05/04 07:54:46;;;;;;;3.83;1.30;;;;;;;14.69;33.48;101643.66;5080293;28;20468;-60
2022/05/04 07:57:12;;;;;;;6.18;1.50;;;;;;;14.75;33.37;101643.59;5080834;28;20052;-60
2022/05/04 07:59:39;;;;;;;6.82;1.17;;;;;;;14.80;33.81;101644.41;5084677;28;20074;-61
2022/05/04 08:04:49;;;;;;;3.25;1.33;;;;;;;14.79;32.56;101640.91;5071011;28;20047;-60
2022/05/04 08:07:16;;;;;;;5.40;1.20;;;;;;;14.80;32.46;101641.78;5062399;28;20106;-61
2022/05/04 08:09:44;;;;;;;3.65;1.05;;;;;;;14.81;32.05;101652.22;5055782;28;20052;-61
2022/05/04 08:12:12;;;;;;;5.72;1.17;;;;;;;14.85;31.80;101645.22;5063830;28;20444;-61
2022/05/04 08:14:39;;;;;;;3.40;1.00;;;;;;;14.89;31.70;101646.91;5082040;28;20045;-61
2022/05/04 08:17:06;;;;;;;4.88;1.27;;;;;;;14.96;31.06;101648.56;5080651;28;20048;-60
2022/05/04 08:19:32;;;;;;;2.88;0.90;;;;;;;15.00;30.79;101645.03;5077849;28;20084;-61
2022/05/04 08:21:59;;;;;;;4.07;0.70;;;;;;;15.09;30.87;101644.94;5080120;28;20055;-60
2022/05/04 08:24:25;;;;;;;4.72;1.08;;;;;;;15.12;30.19;101644.03;5063056;28;20055;-59
2022/05/04 08:26:53;;;;;;;4.65;1.20;;;;;;;15.15;30.13;101655.31;5081864;28;20044;-61
2022/05/04 08:29:20;;;;;;;4.85;0.98;;;;;;;15.18;29.69;101650.91;5070085;28;20078;-58
2022/05/04 08:31:46;;;;;;;4.78;1.08;;;;;;;15.20;29.44;101646.53;5072423;28;20056;-61
2022/05/04 08:34:13;;;;;;;3.58;0.90;;;;;;;15.24;29.39;101643.00;5059544;28;20062;-59
2022/05/04 08:36:39;;;;;;;7.93;1.13;;;;;;;15.27;29.43;101658.63;5085814;28;20056;-61
2022/05/04 08:39:06;;;;;;;3.60;1.00;;;;;;;15.25;29.20;101649.94;5083737;28;20063;-59
2022/05/04 08:41:37;;;;;;;3.38;0.90;;;;;;;15.18;29.13;101649.16;5090452;28;20368;-60
2022/05/04 08:44:08;;;;;;;5.53;1.25;;;;;;;15.12;29.40;101655.34;5075351;28;20053;-59
2022/05/04 08:46:38;;;;;;;3.53;1.00;;;;;;;15.15;29.51;101650.06;5071686;28;20055;-59
2022/05/04 08:49:06;;;;;;;3.53;1.05;;;;;;;15.30;28.94;101653.38;5074088;28;20059;-58
2022/05/04 08:51:35;;;;;;;3.17;0.90;;;;;;;15.41;28.91;101657.56;5077801;28;20049;-58
2022/05/04 08:54:01;;;;;;;4.88;1.02;;;;;;;15.52;29.06;101649.56;5088872;28;20044;-59
2022/05/04 08:56:28;;;;;;;3.53;1.00;;;;;;;15.67;28.95;101656.38;5078187;28;20048;-61
2022/05/04 08:58:55;;;;;;;3.63;1.13;;;;;;;15.78;28.56;101657.94;5083017;28;20053;-60
2022/05/04 09:01:24;;;;;;;12.55;1.80;;;;;;;15.84;28.60;101650.88;5084902;28;20373;-59
2022/05/04 09:03:51;;;;;;;3.22;0.80;;;;;;;15.91;28.77;101657.75;5075510;28;20059;-58
2022/05/04 09:06:26;;;;;;;3.05;1.00;;;;;;;15.91;28.70;101652.53;5087782;28;20488;-59
2022/05/04 09:08:57;;;;;;;9.13;1.77;;;;;;;15.87;28.25;101651.69;5080592;28;20073;-60
2022/05/04 09:11:25;;;;;;;4.63;1.00;;;;;;;15.82;28.88;101657.91;5077960;28;20048;-58
2022/05/04 09:13:52;;;;;;;2.85;1.10;;;;;;;15.75;28.76;101650.16;5088466;28;20064;-58
2022/05/04 09:16:31;;;;;;;3.50;1.00;;;;;;;15.68;28.31;101652.88;5063348;28;20052;-60
2022/05/04 09:19:00;;;;;;;4.00;0.95;;;;;;;15.69;28.92;101652.84;5073843;28;20435;-59
2022/05/04 09:21:26;;;;;;;3.42;0.80;;;;;;;15.73;29.21;101654.53;5079970;28;20047;-60
2022/05/04 09:23:54;;;;;;;2.80;0.63;;;;;;;15.81;29.31;101645.72;5066679;28;20075;-60
2022/05/04 09:26:22;;;;;;;4.65;0.90;;;;;;;15.92;29.42;101638.56;5064063;28;20364;-60
2022/05/04 09:28:53;;;;;;;55.25;4.85;;;;;;;16.04;29.03;101651.44;5063303;28;20445;-60
2022/05/04 09:31:24;;;;;;;2.50;0.73;;;;;;;16.04;28.68;101648.81;5062213;28;20060;-60
2022/05/04 09:33:57;;;;;;;2.95;1.10;;;;;;;15.96;28.12;101645.47;5089894;28;20113;-60
2022/05/04 09:36:34;;;;;;;4.63;1.20;;;;;;;15.80;28.13;101643.97;5081685;28;20043;-60
2022/05/04 09:45:12;;;;;;;3.97;0.95;;;;;;;15.66;28.48;101639.84;5082644;28;20162;-58
2022/05/04 09:47:40;;;;;;;3.88;1.25;;;;;;;15.58;29.29;101643.41;5086032;28;20052;-59
2022/05/04 09:50:10;;;;;;;4.47;1.23;;;;;;;15.56;29.11;101632.09;5080126;28;20048;-55
2022/05/04 09:52:42;;;;;;;2.85;1.05;;;;;;;15.54;29.37;101631.25;5088856;28;20231;-59
2022/05/04 09:55:14;;;;;;;1.98;0.90;;;;;;;15.57;29.25;101629.47;5086847;28;20056;-59
2022/05/04 09:57:41;;;;;;;3.72;1.00;;;;;;;15.55;28.92;101633.84;5076941;28;20083;-59
2022/05/04 10:00:09;;;;;;;4.07;1.58;;;;;;;15.43;29.59;101634.03;5091970;28;20472;-60
2022/05/04 10:02:37;;;;;;;3.42;1.02;;;;;;;15.40;29.84;101631.44;5072165;28;20041;-61
2022/05/04 10:05:04;;;;;;;4.47;1.65;;;;;;;15.40;30.29;101631.44;5086160;28;20048;-61
2022/05/04 10:07:32;;;;;;;5.55;1.50;;;;;;;15.44;30.39;101636.63;5087249;28;20472;-60
2022/05/04 10:09:59;;;;;;;5.82;1.42;;;;;;;15.50;30.16;101627.81;5078274;28;20138;-58
2022/05/04 10:12:27;;;;;;;3.25;1.10;;;;;;;15.54;30.24;101636.47;5084248;28;20044;-59
2022/05/04 10:14:58;;;;;;;4.95;1.23;;;;;;;15.56;30.42;101640.78;5084338;28;20055;-58
2022/05/04 10:17:26;;;;;;;3.30;1.10;;;;;;;15.53;30.51;101627.78;5089041;28;20109;-59
2022/05/04 10:19:58;;;;;;;6.95;1.55;;;;;;;15.52;30.62;101623.44;5078644;28;20055;-59
2022/05/04 10:22:30;;;;;;;3.15;0.95;;;;;;;15.48;30.50;101630.47;5086499;28;20477;-61
2022/05/04 10:25:01;;;;;;;2.80;1.13;;;;;;;15.42;30.45;101622.72;5074671;28;20052;-58
2022/05/04 10:27:29;;;;;;;3.28;1.55;;;;;;;15.40;30.70;101608.81;5066545;28;20339;-57
2022/05/04 10:32:46;;;;;;;2.95;0.73;;;;;;;15.41;29.76;101615.75;5082854;28;20401;-59
2022/05/04 10:35:28;;;;;;;1.88;0.70;;;;;;;15.41;28.93;101620.97;5083025;28;20056;-59
2022/05/04 10:38:04;;;;;;;3.30;0.80;;;;;;;15.44;28.54;101607.88;5091126;28;20052;-58
2022/05/04 10:40:34;;;;;;;2.78;0.70;;;;;;;15.46;28.51;101610.47;5075188;28;20143;-58
2022/05/04 10:43:02;;;;;;;1.67;0.77;;;;;;;15.55;28.41;101615.56;5073257;28;20087;-57
2022/05/04 10:45:31;;;;;;;2.55;0.73;;;;;;;15.63;28.40;101610.28;5059361;28;20229;-59
2022/05/04 10:48:25;;;;;;;2.33;0.70;;;;;;;15.62;27.28;101614.63;5069958;28;20052;-58
2022/05/04 10:50:53;;;;;;;3.00;0.98;;;;;;;15.67;28.37;101618.03;5053315;28;20056;-59
2022/05/04 10:53:36;;;;;;;3.05;0.82;;;;;;;15.66;28.00;101613.69;5066103;28;20063;-57
2022/05/04 10:56:06;;;;;;;1.63;0.70;;;;;;;15.63;28.27;101605.91;5056619;28;20485;-59
2022/05/04 10:58:34;;;;;;;3.22;0.65;;;;;;;15.67;28.15;101607.59;5054053;28;20041;-58
2022/05/04 11:01:20;;;;;;;3.58;1.08;;;;;;;15.61;27.07;101612.91;5064471;28;20056;-58
2022/05/04 11:04:06;;;;;;;2.42;0.93;;;;;;;15.63;27.90;101613.75;5057519;28;20071;-58
2022/05/04 11:06:34;;;;;;;1.35;0.50;;;;;;;15.63;28.04;101605.91;5066735;28;20041;-58
2022/05/04 11:09:07;;;;;;;1.98;0.80;;;;;;;15.71;27.82;101603.16;5060350;28;20057;-58
2022/05/04 11:11:37;;;;;;;6.50;1.10;;;;;;;15.74;28.08;101600.50;5062253;28;20048;-59
2022/05/04 11:14:04;;;;;;;3.35;0.73;;;;;;;15.73;27.71;101599.66;5062358;28;20049;-59
2022/05/04 11:16:31;;;;;;;92.47;8.48;;;;;;;15.67;28.47;101607.59;5054472;28;20487;-58
2022/05/04 11:18:59;;;;;;;4.53;1.13;;;;;;;15.71;28.03;101592.72;5063912;28;20072;-57
2022/05/04 11:21:27;;;;;;;2.63;1.00;;;;;;;15.78;28.50;101595.19;5059989;28;20067;-59
2022/05/04 11:23:56;;;;;;;4.35;1.45;;;;;;;15.93;28.04;101606.28;5070147;28;20048;-58
2022/05/04 11:26:24;;;;;;;28.73;2.15;;;;;;;15.97;27.86;101600.13;5058405;28;20519;-58
2022/05/04 11:28:54;;;;;;;2.30;0.90;;;;;;;15.91;27.24;101595.00;5063506;28;20059;-58
2022/05/04 11:31:21;;;;;;;4.47;0.60;;;;;;;15.82;27.29;101595.16;5066730;28;20056;-56
2022/05/04 11:33:49;;;;;;;4.25;0.65;;;;;;;15.79;27.26;101590.84;5057297;28;20053;-59
2022/05/04 11:36:19;;;;;;;1.60;0.80;;;;;;;15.78;27.70;101584.75;5069519;28;20056;-57
2022/05/04 11:38:47;;;;;;;2.15;0.80;;;;;;;15.78;27.42;101589.97;5055718;28;20044;-56
2022/05/04 11:41:13;;;;;;;3.58;0.77;;;;;;;15.80;27.39;101592.56;5064513;28;20166;-56
2022/05/04 11:43:40;;;;;;;4.25;0.70;;;;;;;15.82;27.71;101582.94;5060327;28;20037;-56
2022/05/04 11:46:10;;;;;;;2.83;1.02;;;;;;;15.88;27.33;101585.44;5061284;28;20053;-56
2022/05/04 11:48:37;;;;;;;5.90;0.75;;;;;;;15.95;27.37;101586.22;5058119;28;20485;-57
2022/05/04 11:51:05;;;;;;;3.60;0.90;;;;;;;15.85;26.59;101588.13;5063936;28;20132;-58
2022/05/04 11:53:31;;;;;;;1.52;0.57;;;;;;;15.77;26.60;101576.94;5058386;28;20048;-57
2022/05/04 11:55:59;;;;;;;2.53;0.77;;;;;;;15.76;26.74;101569.97;5068199;28;20439;-56
2022/05/04 11:58:27;;;;;;;2.58;0.68;;;;;;;15.82;26.79;101579.47;5067817;28;20087;-57
2022/05/04 12:00:54;;;;;;;5.28;0.60;;;;;;;15.84;26.71;101567.22;5060592;28;20045;-56
2022/05/04 12:03:23;;;;;;;4.55;0.68;;;;;;;15.89;26.52;101576.72;5066116;28;20053;-57
2022/05/04 12:05:50;;;;;;;3.35;0.80;;;;;;;15.85;26.36;101584.66;5056572;28;20056;-57